createdAt,value
2022-11-26T00:00:25.711Z,8.50
2022-11-26T00:02:57.114Z,8.50
2022-11-26T00:05:35.437Z,8.50
2022-11-26T00:08:17.683Z,8.40
2022-11-26T00:10:52.552Z,8.40
2022-11-26T00:13:28.671Z,8.40
2022-11-26T00:16:02.551Z,8.30
2022-11-26T00:18:33.556Z,8.40
2022-11-26T00:21:04.393Z,8.40
2022-11-26T00:23:35.333Z,8.30
2022-11-26T00:26:18.500Z,8.30
2022-11-26T00:28:53.768Z,8.30
2022-11-26T00:31:27.554Z,8.30
2022-11-26T00:33:58.587Z,8.30
2022-11-26T00:36:32.884Z,8.30
2022-11-26T00:39:12.322Z,8.30
2022-11-26T00:41:52.281Z,8.30
2022-11-26T00:44:25.775Z,8.30
2022-11-26T00:46:56.560Z,8.30
2022-11-26T00:49:34.157Z,8.30
2022-11-26T00:52:05.366Z,8.30
2022-11-26T00:54:36.993Z,8.20
2022-11-26T00:57:13.774Z,8.20
2022-11-26T00:59:44.823Z,8.20
2022-11-26T01:02:15.880Z,8.20
2022-11-26T01:04:47.992Z,8.20
2022-11-26T01:07:18.831Z,8.20
2022-11-26T01:09:50.432Z,8.20
2022-11-26T01:12:23.862Z,8.20
2022-11-26T01:14:55.178Z,8.20
2022-11-26T01:17:29.083Z,8.20
2022-11-26T01:19:59.937Z,8.20
2022-11-26T01:22:30.781Z,8.20
2022-11-26T01:25:02.722Z,8.20
2022-11-26T01:27:36.252Z,8.30
2022-11-26T01:30:19.135Z,8.40
2022-11-26T01:32:50.283Z,8.40
2022-11-26T01:35:24.541Z,8.40
2022-11-26T01:37:55.802Z,8.40
2022-11-26T01:40:41.744Z,8.30
2022-11-26T01:43:25.416Z,8.20
2022-11-26T01:45:57.097Z,8.20
2022-11-26T01:48:31.578Z,8.20
2022-11-26T01:51:07.566Z,8.20
2022-11-26T01:54:02.868Z,8.20
2022-11-26T01:56:39.022Z,8.50
2022-11-26T01:59:19.032Z,8.30
2022-11-26T02:01:54.538Z,8.40
2022-11-26T02:04:31.328Z,8.50
2022-11-26T02:07:02.994Z,8.70
2022-11-26T02:09:34.544Z,8.50
2022-11-26T02:12:08.769Z,8.50
2022-11-26T02:14:46.076Z,8.60
2022-11-26T02:17:23.445Z,8.60
2022-11-26T02:20:20.521Z,8.90
2022-11-26T02:23:12.081Z,8.60
2022-11-26T02:26:18.398Z,8.60
2022-11-26T02:29:05.847Z,8.50
2022-11-26T02:31:46.818Z,8.50
2022-11-26T02:34:22.821Z,8.50
2022-11-26T02:36:58.231Z,8.40
2022-11-26T02:39:32.146Z,8.50
2022-11-26T02:45:45.394Z,8.30
2022-11-26T02:48:24.432Z,8.40
2022-11-26T02:50:58.430Z,8.30
2022-11-26T02:53:32.079Z,7.90
2022-11-26T02:56:06.213Z,8.30
2022-11-26T02:58:38.108Z,8.30
2022-11-26T03:01:14.754Z,8.30
2022-11-26T03:03:54.016Z,8.30
2022-11-26T03:06:25.875Z,8.30
2022-11-26T03:08:57.277Z,8.20
2022-11-26T03:11:28.448Z,8.10
2022-11-26T03:13:59.255Z,8.10
2022-11-26T03:16:30.557Z,8.20
2022-11-26T03:19:04.248Z,8.00
2022-11-26T03:21:37.518Z,8.00
2022-11-26T03:24:09.428Z,7.90
2022-11-26T03:26:40.835Z,8.00
2022-11-26T03:29:11.580Z,8.00
2022-11-26T03:31:42.360Z,7.90
2022-11-26T03:34:15.686Z,7.90
2022-11-26T03:36:47.648Z,7.90
2022-11-26T03:39:18.686Z,7.90
2022-11-26T03:41:51.913Z,7.90
2022-11-26T03:44:23.646Z,7.70
2022-11-26T03:46:57.646Z,7.80
2022-11-26T03:49:30.990Z,7.80
2022-11-26T03:52:02.041Z,7.80
2022-11-26T03:54:32.810Z,7.80
2022-11-26T03:57:08.025Z,7.80
2022-11-26T03:59:38.862Z,7.80
2022-11-26T04:02:09.585Z,7.70
2022-11-26T04:04:43.000Z,7.70
2022-11-26T04:07:16.906Z,7.70
2022-11-26T04:09:48.716Z,8.00
2022-11-26T04:12:19.498Z,7.70
2022-11-26T04:14:50.496Z,7.70
2022-11-26T04:17:22.091Z,7.70
2022-11-26T04:19:55.429Z,7.70
2022-11-26T04:22:26.168Z,7.70
2022-11-26T04:24:56.899Z,7.70
2022-11-26T04:27:27.681Z,7.60
2022-11-26T04:29:58.447Z,7.50
2022-11-26T04:32:29.280Z,7.60
2022-11-26T04:35:02.576Z,7.60
2022-11-26T04:37:33.368Z,7.60
2022-11-26T04:40:04.226Z,7.60
2022-11-26T04:42:40.719Z,7.60
2022-11-26T04:45:13.222Z,7.50
2022-11-26T04:47:44.241Z,7.50
2022-11-26T04:50:17.899Z,7.50
2022-11-26T04:52:49.954Z,7.50
2022-11-26T04:55:21.770Z,7.50
2022-11-26T04:57:52.689Z,7.50
2022-11-26T05:00:24.882Z,7.50
2022-11-26T05:02:55.727Z,7.50
2022-11-26T05:05:29.108Z,7.50
2022-11-26T05:08:04.823Z,7.50
2022-11-26T05:10:37.789Z,7.40
2022-11-26T05:13:09.153Z,7.40
2022-11-26T05:15:39.980Z,7.30
2022-11-26T05:21:20.233Z,7.40
2022-11-26T05:23:51.099Z,7.40
2022-11-26T05:26:22.068Z,7.40
2022-11-26T05:28:52.842Z,7.30
2022-11-26T05:31:23.674Z,7.30
2022-11-26T05:33:55.926Z,7.30
2022-11-26T05:36:29.443Z,7.30
2022-11-26T05:39:00.136Z,7.30
2022-11-26T05:41:30.930Z,7.30
2022-11-26T05:44:01.662Z,7.30
2022-11-26T05:46:33.006Z,7.30
2022-11-26T05:49:09.174Z,7.30
2022-11-26T05:51:42.587Z,7.30
2022-11-26T05:54:17.149Z,7.30
2022-11-26T05:56:54.262Z,7.30
2022-11-26T05:59:29.671Z,7.40
2022-11-26T06:02:00.928Z,7.40
2022-11-26T06:04:31.898Z,7.30
2022-11-26T06:07:06.943Z,7.30
2022-11-26T06:09:38.544Z,7.30
2022-11-26T06:12:09.901Z,7.30
2022-11-26T06:14:43.317Z,7.30
2022-11-26T06:17:16.027Z,7.20
2022-11-26T06:19:48.449Z,7.20
2022-11-26T06:22:21.878Z,7.20
2022-11-26T06:24:54.585Z,7.20
2022-11-26T06:27:25.337Z,7.20
2022-11-26T06:29:56.149Z,7.30
2022-11-26T06:32:27.010Z,7.30
2022-11-26T06:34:57.683Z,7.30
2022-11-26T06:37:31.172Z,7.30
2022-11-26T06:40:01.979Z,7.00
2022-11-26T06:42:32.753Z,7.20
2022-11-26T06:45:05.900Z,7.20
2022-11-26T06:47:36.599Z,7.20
2022-11-26T06:50:10.834Z,7.20
2022-11-26T06:52:44.597Z,7.20
2022-11-26T06:55:17.358Z,7.30
2022-11-26T06:57:51.820Z,7.20
2022-11-26T07:00:23.926Z,7.20
2022-11-26T07:02:54.791Z,7.30
2022-11-26T07:05:25.612Z,7.30
2022-11-26T07:08:01.234Z,7.30
2022-11-26T07:10:32.029Z,7.30
2022-11-26T07:13:03.022Z,7.20
2022-11-26T07:15:33.768Z,7.20
2022-11-26T07:18:07.092Z,7.30
2022-11-26T07:20:39.437Z,7.20
2022-11-26T07:23:13.467Z,7.20
2022-11-26T07:25:44.236Z,7.20
2022-11-26T07:28:15.053Z,7.10
2022-11-26T07:30:45.848Z,7.10
2022-11-26T07:33:16.619Z,7.10
2022-11-26T07:35:47.447Z,7.10
2022-11-26T07:38:20.911Z,7.10
2022-11-26T07:40:51.725Z,7.10
2022-11-26T07:43:22.525Z,7.10
2022-11-26T07:45:55.618Z,7.10
2022-11-26T07:48:26.350Z,7.50
2022-11-26T07:51:00.338Z,7.10
2022-11-26T07:53:37.540Z,7.10
2022-11-26T07:56:08.924Z,7.20
2022-11-26T07:58:39.727Z,7.20
2022-11-26T08:01:11.936Z,7.20
2022-11-26T08:03:44.100Z,7.20
2022-11-26T08:06:17.643Z,7.20
2022-11-26T08:08:52.247Z,7.30
2022-11-26T08:11:24.910Z,7.40
2022-11-26T08:13:58.505Z,7.50
2022-11-26T08:16:29.790Z,7.60
2022-11-26T08:19:02.288Z,7.70
2022-11-26T15:51:37.286Z,10.40
2022-11-26T15:54:24.231Z,10.40
2022-11-26T15:57:06.522Z,10.20
2022-11-26T15:59:45.064Z,10.10
2022-11-26T16:02:23.816Z,10.20
2022-11-26T16:04:55.883Z,10.10
2022-11-26T16:07:31.422Z,10.40
2022-11-26T16:10:27.722Z,10.00
2022-11-26T16:13:10.275Z,10.00
2022-11-26T16:15:50.485Z,10.00
2022-11-26T16:18:24.488Z,10.00
2022-11-26T16:21:05.504Z,10.00
2022-11-26T16:23:41.510Z,10.00
2022-11-26T16:26:17.455Z,9.40
2022-11-26T16:28:49.639Z,10.00
2022-11-26T16:31:22.369Z,9.90
2022-11-26T16:33:53.130Z,9.80
2022-11-26T16:36:26.995Z,9.80
2022-11-26T16:39:00.436Z,9.70
2022-11-26T16:41:31.246Z,9.70
2022-11-26T16:44:02.402Z,9.50
2022-11-26T16:46:33.787Z,9.60
2022-11-26T16:49:04.969Z,9.70
2022-11-26T16:51:35.811Z,9.50
2022-11-26T16:54:10.105Z,9.70
2022-11-26T16:56:41.459Z,9.90
2022-11-26T16:59:20.775Z,9.40
2022-11-26T17:01:51.626Z,9.40
2022-11-26T17:04:22.687Z,9.60
2022-11-26T17:09:42.170Z,9.40
2022-11-26T17:12:19.726Z,9.40
2022-11-26T17:17:43.059Z,9.30
2022-11-26T17:20:20.032Z,9.10
2022-11-26T17:22:52.055Z,9.20
2022-11-26T17:25:25.495Z,9.10
2022-11-26T17:27:56.232Z,9.10
2022-11-26T17:30:27.482Z,9.00
2022-11-26T17:32:58.774Z,9.00
2022-11-26T17:35:31.259Z,9.20
2022-11-26T17:38:02.069Z,9.00
2022-11-26T17:40:39.115Z,8.90
2022-11-26T17:43:12.991Z,8.90
2022-11-26T17:45:44.202Z,8.90
2022-11-26T17:48:17.875Z,8.90
2022-11-26T17:53:47.413Z,8.80
2022-11-26T17:56:25.987Z,8.70
2022-11-26T17:58:57.118Z,8.70
2022-11-26T18:01:33.615Z,8.70
2022-11-26T18:04:04.646Z,8.70
2022-11-26T18:06:43.092Z,8.10
2022-11-26T18:09:13.850Z,8.60
2022-11-26T18:11:49.707Z,8.50
2022-11-26T18:14:26.297Z,8.60
2022-11-26T18:16:57.866Z,8.50
2022-11-26T18:19:29.077Z,8.50
2022-11-26T18:22:01.995Z,8.50
2022-11-26T18:24:34.782Z,8.40
2022-11-26T18:27:09.214Z,8.40
2022-11-26T18:29:40.323Z,8.30
2022-11-26T18:32:12.692Z,8.30
2022-11-26T18:34:43.625Z,8.30
2022-11-26T18:37:15.669Z,8.20
2022-11-26T18:39:46.631Z,8.20
2022-11-26T18:45:17.699Z,8.10
2022-11-26T18:47:49.039Z,8.10
2022-11-26T18:50:20.697Z,8.10
2022-11-26T18:52:52.409Z,8.10
2022-11-26T18:55:23.720Z,8.10
2022-11-26T18:57:57.491Z,8.00
2022-11-26T19:00:28.458Z,8.00
2022-11-26T19:03:01.762Z,8.00
2022-11-26T19:05:33.580Z,8.00
2022-11-26T19:08:13.325Z,8.00
2022-11-26T19:10:44.442Z,8.00
2022-11-26T19:13:18.604Z,7.90
2022-11-26T19:15:52.447Z,7.90
2022-11-26T19:18:26.124Z,7.80
2022-11-26T19:20:57.232Z,7.90
2022-11-26T19:23:30.720Z,7.90
2022-11-26T19:26:01.790Z,7.90
2022-11-26T19:28:36.225Z,8.00
2022-11-26T19:31:10.477Z,7.80
2022-11-26T19:33:42.633Z,7.80
2022-11-26T19:36:17.886Z,7.80
2022-11-26T19:38:49.063Z,7.80
2022-11-26T19:41:25.277Z,7.70
2022-11-26T19:44:00.275Z,7.70
2022-11-26T19:46:31.281Z,7.70
2022-11-26T19:49:02.152Z,7.70
2022-11-26T19:51:34.276Z,7.70
2022-11-26T19:54:08.115Z,7.60
2022-11-26T19:56:39.254Z,7.60
2022-11-26T19:59:12.564Z,7.60
2022-11-26T20:01:45.476Z,7.60
2022-11-26T20:04:19.590Z,7.60
2022-11-26T20:06:50.607Z,7.60
2022-11-26T20:09:22.936Z,7.50
2022-11-26T20:11:54.369Z,7.50
2022-11-26T20:14:27.794Z,7.50
2022-11-26T20:17:02.828Z,7.50
2022-11-26T20:19:34.986Z,7.50
2022-11-26T20:22:06.260Z,7.50
2022-11-26T20:24:37.406Z,7.40
2022-11-26T20:27:09.057Z,7.40
2022-11-26T20:29:42.529Z,7.40
2022-11-26T20:32:14.680Z,7.40
2022-11-26T20:34:48.555Z,7.30
2022-11-26T20:37:20.677Z,7.30
2022-11-26T20:39:51.421Z,7.30
2022-11-26T20:42:22.459Z,7.20
2022-11-26T20:44:55.837Z,7.20
2022-11-26T20:47:26.696Z,7.20
2022-11-26T20:49:57.485Z,7.30
2022-11-26T20:52:28.302Z,7.30
2022-11-26T20:54:59.040Z,7.30
2022-11-26T20:57:30.084Z,7.30
2022-11-26T21:00:03.530Z,7.30
2022-11-26T21:02:39.703Z,7.30
2022-11-26T21:05:11.586Z,7.30
2022-11-26T21:07:42.687Z,7.30
2022-11-26T21:10:15.860Z,7.40
2022-11-26T21:12:46.763Z,7.40
2022-11-26T21:15:23.127Z,7.40
2022-11-26T21:17:54.567Z,7.40
2022-11-26T21:20:35.953Z,7.40
2022-11-26T21:23:10.861Z,7.60
2022-11-26T21:25:42.671Z,7.40
2022-11-26T21:28:15.022Z,7.40
2022-11-26T21:30:50.458Z,7.40
2022-11-26T21:33:21.246Z,7.30
2022-11-26T21:35:52.060Z,7.40
2022-11-26T21:38:26.697Z,7.40
2022-11-26T21:40:57.670Z,7.50
2022-11-26T21:43:28.496Z,7.50
2022-11-26T21:46:04.118Z,7.50
2022-11-26T21:48:35.685Z,7.50
2022-11-26T21:51:09.122Z,7.50
2022-11-26T21:53:40.263Z,7.60
2022-11-26T21:56:13.448Z,7.50
2022-11-26T21:58:44.363Z,7.60
2022-11-26T22:01:33.354Z,7.60
2022-11-26T22:04:10.616Z,7.40
2022-11-26T22:06:41.752Z,7.60
2022-11-26T22:09:14.162Z,7.60
2022-11-26T22:11:47.036Z,7.60
2022-11-26T22:14:20.334Z,7.50
2022-11-26T22:16:54.139Z,7.50
2022-11-26T22:19:27.579Z,7.60
2022-11-26T22:21:58.365Z,7.90
2022-11-26T22:24:30.575Z,7.60
2022-11-26T22:27:01.974Z,7.50
2022-11-26T22:29:33.785Z,7.60
2022-11-26T22:32:04.634Z,7.50
2022-11-26T22:34:39.061Z,7.50
2022-11-26T22:37:09.798Z,7.50
2022-11-26T22:39:42.167Z,7.50
2022-11-26T22:42:13.924Z,7.60
2022-11-26T22:44:44.742Z,7.60
2022-11-26T22:47:15.910Z,7.60
2022-11-26T22:49:52.649Z,7.60
2022-11-26T22:52:23.518Z,7.50
2022-11-26T22:54:54.285Z,7.50
2022-11-26T22:57:25.751Z,7.40
2022-11-26T22:59:56.569Z,7.50
2022-11-26T23:02:28.714Z,7.50
2022-11-26T23:05:02.415Z,7.40
2022-11-26T23:07:33.253Z,7.40
2022-11-26T23:10:04.135Z,7.80
2022-11-26T23:12:36.889Z,7.40
2022-11-26T23:15:08.411Z,7.40
2022-11-26T23:17:42.089Z,7.30
2022-11-26T23:20:16.584Z,7.40
2022-11-26T23:22:50.394Z,7.40
2022-11-26T23:25:23.108Z,7.30
2022-11-26T23:27:53.876Z,7.30
2022-11-26T23:30:24.974Z,7.20
2022-11-26T23:32:55.710Z,7.10
2022-11-26T23:35:30.016Z,7.10
2022-11-26T23:38:00.734Z,7.10
2022-11-26T23:40:33.453Z,7.10
2022-11-26T23:43:08.443Z,7.50
2022-11-26T23:45:42.275Z,7.00
2022-11-26T23:48:13.032Z,7.00
2022-11-26T23:50:46.963Z,7.00
2022-11-26T23:53:18.779Z,7.00
2022-11-26T23:55:56.150Z,7.00
2022-11-26T23:58:28.525Z,6.90
